Aeroporto :







RITROVATECI SU...

 
LOGIN :

Iscrizione | Disclaimer

   EN    FR    IT 

 









Sommario :    VFR   VFR Marginale   IFR   IFR Intensivo   IFR Molto Intensivo
Visibilità : 
Base nubi : 
>= 8 km
>= 3000ft
5 / 8 km
1000 / 3000 ft
1500m / 5 km
500 / 1000 ft
800 / 1500m
200 / 500 ft
< 800m
< 200 ft
Simboli :   Temporali  Nebbia  Neve Forte  Precipitazioni Forti  Vento > 20 kt






- Altitudine del aeroporto : 13 ft
- Codice IATA : SXM


TNCM - Princess Juliana Int.

ULTIMO METAR :
  • 221400Z 09008KT 9999 -SHRA FEW016 SCT035 24/22 Q1015 TEMPO SHRA

METARs OBSOLETI :
  • 221300Z 08007KT 040V110 9999 -RA FEW015 BKN035 26/22 Q1015 TEMPO SHRA
  • 221200Z 09006KT 060V120 9999 FEW016 BKN035 26/21 Q1014 NOSIG

TAF TNCM
Valido dal 22 a 12 ore il 23 a 12 ore UTC


221143Z 2212/2312 10008KT P6SM VCSH SCT018 SCT040
TEMPO 2212/2214 -SHRA BKN018
FM221600 14010KT P6SM VCSH SCT018



MetMap, La meteo Aeronautica in un colpo d'occhio ! - Copyright ORBIFLY Dicembre 2007 - Disclaimer

ORBIFLY MET'MAP TEAM :

Programmazione e sviluppo : Alexandra Zaïnal
Concezione : Baudouin d'Aumeries
Aiuto per la programmazione : Marc-Olivier Méhu
Supporto tecnico e logistico : Manuel Goepfert
Aiuto per la traduzione : Arnaldo La Scala

Contatto : metmap@orbifly.com




FONTI E CREDITI :

   NOAA